createdAt,value
2018-08-20T00:00:33.463Z,14.83
2018-08-20T00:01:39.741Z,17.17
2018-08-20T00:02:43.674Z,11.00
2018-08-20T00:03:49.555Z,15.83
2018-08-20T00:04:53.391Z,13.78
2018-08-20T00:05:57.088Z,14.50
2018-08-20T00:07:00.580Z,14.07
2018-08-20T00:08:04.242Z,13.28
2018-08-20T00:09:07.959Z,17.00
2018-08-20T00:10:11.983Z,12.50
2018-08-20T00:11:16.628Z,17.12
2018-08-20T00:12:20.289Z,13.80
2018-08-20T00:13:24.399Z,16.55
2018-08-20T00:14:28.502Z,14.68
2018-08-20T00:15:32.681Z,14.68
2018-08-20T00:16:36.348Z,12.98
2018-08-20T00:17:39.971Z,15.00
2018-08-20T00:18:43.500Z,13.65
2018-08-20T00:19:47.950Z,9.93
2018-08-20T00:20:52.114Z,14.90
2018-08-20T00:21:55.576Z,12.88
2018-08-20T00:22:59.134Z,14.05
2018-08-20T00:24:02.591Z,13.32
2018-08-20T00:25:15.545Z,17.70
2018-08-20T00:26:19.005Z,16.52
2018-08-20T00:27:22.553Z,13.45
2018-08-20T00:28:26.699Z,13.60
2018-08-20T00:29:30.399Z,15.20
2018-08-20T00:30:33.905Z,16.67
2018-08-20T00:31:37.377Z,15.45
2018-08-20T00:32:42.798Z,18.40
2018-08-20T00:33:46.277Z,18.90
2018-08-20T00:34:49.849Z,12.13
2018-08-20T00:35:53.656Z,14.87
2018-08-20T00:36:57.184Z,14.60
2018-08-20T00:38:00.795Z,14.23
2018-08-20T00:39:05.988Z,16.57
2018-08-20T00:40:09.670Z,17.45
2018-08-20T00:41:13.214Z,15.18
2018-08-20T00:42:16.681Z,15.45
2018-08-20T00:43:20.305Z,15.53
2018-08-20T00:44:23.953Z,17.27
2018-08-20T00:45:27.474Z,18.85
2018-08-20T00:46:30.963Z,17.85
2018-08-20T00:47:34.557Z,15.15
2018-08-20T00:48:38.419Z,14.53
2018-08-20T00:49:42.576Z,12.00
2018-08-20T00:50:46.233Z,19.85
2018-08-20T00:51:49.780Z,13.95
2018-08-20T00:52:53.317Z,12.93
2018-08-20T00:53:57.405Z,20.50
2018-08-20T00:55:00.860Z,17.55
2018-08-20T00:56:04.548Z,18.60
2018-08-20T00:57:08.053Z,13.58
2018-08-20T00:58:11.876Z,12.88
2018-08-20T00:59:15.880Z,16.45
2018-08-20T01:00:19.401Z,13.45
2018-08-20T01:01:22.918Z,11.95
2018-08-20T01:02:30.572Z,16.65
2018-08-20T01:03:34.099Z,13.38
2018-08-20T01:04:37.606Z,15.88
2018-08-20T01:05:41.210Z,13.55
2018-08-20T01:06:44.684Z,14.05
2018-08-20T01:07:48.527Z,13.53
2018-08-20T01:08:52.397Z,13.50
2018-08-20T01:09:56.975Z,13.40
2018-08-20T01:11:00.556Z,12.60
2018-08-20T01:12:04.173Z,11.97
2018-08-20T01:13:07.718Z,15.20
2018-08-20T01:14:12.049Z,14.00
2018-08-20T01:15:16.157Z,13.22
2018-08-20T01:16:19.726Z,15.98
2018-08-20T01:17:23.328Z,15.70
2018-08-20T01:18:26.913Z,11.90
2018-08-20T01:19:30.393Z,11.63
2018-08-20T01:20:35.128Z,13.22
2018-08-20T01:21:38.703Z,12.75
2018-08-20T01:22:42.521Z,13.28
2018-08-20T01:23:46.019Z,14.60
2018-08-20T01:24:49.560Z,13.65
2018-08-20T01:25:53.190Z,13.40
2018-08-20T01:26:56.789Z,13.95
2018-08-20T01:28:00.293Z,16.48
2018-08-20T01:29:03.857Z,13.62
2018-08-20T01:30:08.149Z,15.58
2018-08-20T01:31:12.966Z,18.02
2018-08-20T01:32:16.521Z,12.50
2018-08-20T01:33:20.118Z,15.72
2018-08-20T01:34:23.800Z,13.83
2018-08-20T01:35:28.714Z,14.95
2018-08-20T01:36:32.485Z,16.23
2018-08-20T01:37:35.979Z,15.70
2018-08-20T01:38:39.625Z,14.93
2018-08-20T01:39:44.270Z,15.43
2018-08-20T01:40:47.809Z,13.53
2018-08-20T01:41:51.345Z,14.80
2018-08-20T01:42:55.128Z,14.30
2018-08-20T01:43:58.669Z,14.47
2018-08-20T01:45:02.196Z,12.73
2018-08-20T01:46:05.816Z,14.87
2018-08-20T01:47:09.942Z,14.95
2018-08-20T01:48:13.477Z,15.25
2018-08-20T01:49:16.996Z,11.40
2018-08-20T01:50:20.544Z,16.67
2018-08-20T01:51:24.125Z,12.47
2018-08-20T01:52:27.592Z,13.20
2018-08-20T01:53:31.279Z,10.53
2018-08-20T01:54:35.996Z,15.50
2018-08-20T01:55:40.233Z,11.90
2018-08-20T01:56:43.721Z,12.00
2018-08-20T01:57:47.816Z,11.93
2018-08-20T01:58:51.923Z,13.10
2018-08-20T01:59:55.664Z,15.55
2018-08-20T02:00:59.245Z,12.95
2018-08-20T02:02:02.746Z,14.75
2018-08-20T02:03:06.258Z,23.57
2018-08-20T02:04:10.050Z,12.47
2018-08-20T02:05:13.692Z,11.38
2018-08-20T02:06:17.334Z,13.72
2018-08-20T02:07:20.911Z,14.43
2018-08-20T02:08:24.446Z,13.03
2018-08-20T02:09:27.949Z,14.10
2018-08-20T02:10:31.785Z,13.88
2018-08-20T02:11:35.248Z,14.15
2018-08-20T02:12:40.354Z,15.13
2018-08-20T02:13:43.891Z,13.78
2018-08-20T02:14:47.661Z,15.88
2018-08-20T02:15:52.918Z,12.10
2018-08-20T02:16:57.861Z,12.95
2018-08-20T02:18:02.142Z,11.48
2018-08-20T02:19:06.319Z,13.75
2018-08-20T02:20:10.031Z,13.78
2018-08-20T02:21:14.200Z,13.90
2018-08-20T02:22:18.291Z,12.55
2018-08-20T02:23:21.777Z,16.32
2018-08-20T02:24:25.328Z,11.95
2018-08-20T02:25:29.351Z,11.80
2018-08-20T02:26:32.999Z,15.25
2018-08-20T02:27:36.556Z,13.55
2018-08-20T02:28:40.050Z,12.68
2018-08-20T02:29:43.559Z,17.70
2018-08-20T02:30:47.051Z,15.55
2018-08-20T02:31:50.605Z,16.85
2018-08-20T02:32:54.156Z,11.63
2018-08-20T02:33:58.678Z,12.55
2018-08-20T02:35:02.178Z,13.68
2018-08-20T02:36:06.193Z,16.40
2018-08-20T02:37:09.751Z,14.47
2018-08-20T02:38:13.271Z,14.20
2018-08-20T02:39:16.861Z,16.57
2018-08-20T02:40:20.420Z,13.53
2018-08-20T02:41:23.911Z,17.17
2018-08-20T02:42:27.558Z,16.67
2018-08-20T02:43:31.843Z,13.70
2018-08-20T02:44:35.423Z,12.28
2018-08-20T02:45:38.994Z,14.90
2018-08-20T02:46:49.024Z,16.50
2018-08-20T02:47:52.848Z,15.28
2018-08-20T02:48:56.322Z,13.15
2018-08-20T02:49:59.832Z,15.30
2018-08-20T02:51:03.406Z,15.85
2018-08-20T02:52:07.016Z,12.23
2018-08-20T02:53:10.602Z,14.10
2018-08-20T02:54:14.316Z,19.23
2018-08-20T02:55:17.802Z,17.67
2018-08-20T02:56:21.396Z,13.25
2018-08-20T02:57:24.948Z,14.63
2018-08-20T02:58:28.455Z,15.00
2018-08-20T02:59:31.973Z,16.20
2018-08-20T03:00:35.517Z,16.93
2018-08-20T03:01:39.024Z,16.35
2018-08-20T03:02:42.712Z,15.13
2018-08-20T03:03:46.743Z,15.30
2018-08-20T03:04:50.657Z,16.50
2018-08-20T03:05:54.240Z,12.63
2018-08-20T03:06:57.854Z,14.63
2018-08-20T03:08:01.680Z,12.20
2018-08-20T03:09:10.986Z,16.57
2018-08-20T03:10:14.564Z,15.63
2018-08-20T03:11:18.045Z,17.30
2018-08-20T03:12:22.924Z,13.85
2018-08-20T03:13:26.520Z,14.13
2018-08-20T03:14:30.178Z,12.10
2018-08-20T03:15:33.649Z,13.30
2018-08-20T03:16:37.820Z,14.28
2018-08-20T03:17:41.286Z,12.47
2018-08-20T03:18:44.819Z,12.28
2018-08-20T03:19:48.394Z,13.98
2018-08-20T03:20:52.010Z,17.23
2018-08-20T03:21:55.509Z,12.18
2018-08-20T03:22:59.177Z,13.38
2018-08-20T03:24:02.670Z,15.13
2018-08-20T03:25:07.067Z,15.90
2018-08-20T03:26:10.693Z,15.75
2018-08-20T03:27:14.364Z,13.03
2018-08-20T03:28:17.854Z,13.10
2018-08-20T03:29:21.819Z,11.55
2018-08-20T03:30:25.313Z,15.23
2018-08-20T03:31:30.372Z,15.55
2018-08-20T03:32:33.858Z,15.85
2018-08-20T03:33:37.694Z,19.15
2018-08-20T03:34:41.202Z,14.80
2018-08-20T03:35:46.110Z,12.50
2018-08-20T03:36:49.646Z,11.93
2018-08-20T03:37:54.491Z,18.90
2018-08-20T03:38:57.942Z,12.78
2018-08-20T03:40:01.449Z,13.15
2018-08-20T03:41:05.278Z,15.05
2018-08-20T03:42:09.596Z,16.45
2018-08-20T03:43:13.271Z,13.48
2018-08-20T03:44:16.932Z,20.10
2018-08-20T03:45:20.468Z,19.23
2018-08-20T03:46:23.984Z,16.07
2018-08-20T03:47:28.515Z,17.92
2018-08-20T03:48:32.337Z,17.32
2018-08-20T03:49:36.029Z,19.55
2018-08-20T03:50:39.608Z,13.58
2018-08-20T03:51:44.069Z,18.80
2018-08-20T03:52:47.723Z,15.95
2018-08-20T03:53:51.232Z,19.20
2018-08-20T03:54:55.320Z,18.80
2018-08-20T03:55:59.009Z,13.03
2018-08-20T03:57:02.715Z,19.15
2018-08-20T03:58:06.420Z,16.90
2018-08-20T03:59:14.941Z,15.53
2018-08-20T04:00:22.949Z,14.50
2018-08-20T04:01:26.936Z,15.78
2018-08-20T04:02:30.468Z,17.70
2018-08-20T04:03:33.948Z,15.72
2018-08-20T04:04:37.526Z,18.82
2018-08-20T04:05:41.228Z,16.20
2018-08-20T04:06:44.743Z,15.43
2018-08-20T04:07:48.331Z,13.80
2018-08-20T04:08:52.441Z,17.60
2018-08-20T04:09:56.645Z,15.72
2018-08-20T04:11:00.119Z,20.65
2018-08-20T04:12:04.592Z,17.92
2018-08-20T04:13:08.375Z,18.27
2018-08-20T04:14:11.940Z,13.80
2018-08-20T04:15:15.453Z,18.25
2018-08-20T04:16:20.063Z,17.23
2018-08-20T04:17:23.555Z,21.68
2018-08-20T04:18:27.293Z,19.05
2018-08-20T04:19:30.927Z,17.02
2018-08-20T04:20:34.455Z,17.17
2018-08-20T04:21:38.098Z,21.45
2018-08-20T04:22:41.711Z,16.62
2018-08-20T04:23:45.187Z,16.80
2018-08-20T04:24:49.124Z,17.35
2018-08-20T04:25:52.591Z,15.38
2018-08-20T04:26:56.079Z,18.32
2018-08-20T04:27:59.628Z,17.85
2018-08-20T04:29:03.254Z,17.27
2018-08-20T04:30:06.864Z,16.55
2018-08-20T04:31:10.704Z,16.80
2018-08-20T04:32:14.191Z,17.65
2018-08-20T04:33:17.823Z,15.78
2018-08-20T04:34:21.832Z,16.73
2018-08-20T04:35:25.364Z,18.05
2018-08-20T04:36:28.993Z,16.42
2018-08-20T04:37:32.492Z,18.30
2018-08-20T04:38:36.107Z,17.35
2018-08-20T04:39:39.932Z,19.02
2018-08-20T04:40:43.528Z,18.92
2018-08-20T04:41:47.203Z,17.00
2018-08-20T04:42:50.781Z,16.15
2018-08-20T04:43:54.270Z,14.93
2018-08-20T04:44:58.506Z,16.70
2018-08-20T04:46:02.048Z,20.32
2018-08-20T04:47:05.722Z,14.60
2018-08-20T04:48:10.342Z,20.40
2018-08-20T04:49:14.045Z,14.43
2018-08-20T04:50:17.782Z,19.52
2018-08-20T04:51:22.433Z,16.65
2018-08-20T04:52:26.671Z,14.70
2018-08-20T04:53:30.337Z,19.57
2018-08-20T04:54:33.914Z,14.95
2018-08-20T04:55:37.627Z,17.52
2018-08-20T04:56:41.137Z,16.82
2018-08-20T04:57:44.692Z,18.23
2018-08-20T04:58:48.824Z,20.30
2018-08-20T04:59:52.486Z,18.55
2018-08-20T05:00:56.053Z,14.23
2018-08-20T05:01:59.571Z,18.17
2018-08-20T05:03:03.079Z,18.35
2018-08-20T05:04:07.277Z,16.45
2018-08-20T05:05:11.296Z,18.37
2018-08-20T05:06:14.823Z,20.90
2018-08-20T05:07:18.518Z,16.23
2018-08-20T05:08:22.006Z,16.27
2018-08-20T05:09:26.227Z,22.05
2018-08-20T05:10:29.769Z,16.02
2018-08-20T05:11:33.307Z,18.37
2018-08-20T05:12:36.875Z,16.77
2018-08-20T05:13:40.729Z,18.17
2018-08-20T05:14:44.203Z,18.25
2018-08-20T05:15:47.843Z,16.75
2018-08-20T05:16:51.335Z,17.82
2018-08-20T05:17:54.914Z,18.70
2018-08-20T05:18:58.464Z,17.20
2018-08-20T05:20:02.761Z,17.60
2018-08-20T05:21:06.677Z,19.15
2018-08-20T05:22:10.350Z,19.57
2018-08-20T05:23:14.223Z,16.32
2018-08-20T05:24:17.811Z,19.75
2018-08-20T05:25:21.298Z,16.52
2018-08-20T05:26:24.843Z,21.42
2018-08-20T05:27:28.382Z,14.30
2018-08-20T05:28:32.065Z,16.97
2018-08-20T05:29:35.546Z,21.23
2018-08-20T05:30:40.001Z,17.27
2018-08-20T05:31:45.332Z,16.15
2018-08-20T05:32:51.605Z,12.65
2018-08-20T05:33:55.495Z,17.17
2018-08-20T05:34:59.632Z,14.87
2018-08-20T05:36:03.267Z,16.35
2018-08-20T05:37:06.835Z,16.00
2018-08-20T05:38:10.385Z,15.68
2018-08-20T05:39:14.518Z,20.50
2018-08-20T05:40:18.076Z,15.93
2018-08-20T05:41:21.724Z,19.07
2018-08-20T05:42:25.219Z,17.77
2018-08-20T05:43:28.808Z,17.87
2018-08-20T05:44:32.422Z,16.73
2018-08-20T05:45:35.945Z,15.88
2018-08-20T05:46:40.095Z,15.93
2018-08-20T05:47:43.729Z,15.63
2018-08-20T05:48:47.894Z,16.80
2018-08-20T05:49:51.490Z,16.42
2018-08-20T05:50:55.388Z,15.48
2018-08-20T05:51:58.918Z,18.75
2018-08-20T05:53:02.518Z,19.73
2018-08-20T05:54:06.770Z,16.27
2018-08-20T05:55:10.443Z,17.73
2018-08-20T05:56:14.070Z,20.15
2018-08-20T05:57:18.693Z,17.77
2018-08-20T05:58:22.322Z,18.00
2018-08-20T05:59:25.982Z,21.12
2018-08-20T06:00:30.752Z,14.83
2018-08-20T06:01:34.352Z,14.50
2018-08-20T06:02:37.928Z,16.20
2018-08-20T06:03:41.629Z,16.82
2018-08-20T06:04:45.230Z,16.97
2018-08-20T06:05:49.619Z,17.25
2018-08-20T06:06:53.234Z,20.15
2018-08-20T06:07:57.277Z,18.00
2018-08-20T06:09:00.855Z,17.90
2018-08-20T06:10:05.106Z,16.35
2018-08-20T06:11:08.689Z,18.62
2018-08-20T06:12:12.558Z,17.25
2018-08-20T06:13:16.903Z,16.48
2018-08-20T06:14:20.420Z,14.80
2018-08-20T06:15:24.035Z,17.25
2018-08-20T06:16:27.493Z,13.80
2018-08-20T06:17:32.423Z,17.35
2018-08-20T06:18:36.201Z,14.68
2018-08-20T06:19:40.093Z,18.20
2018-08-20T06:20:43.670Z,15.28
2018-08-20T06:21:49.365Z,13.93
2018-08-20T06:22:53.753Z,14.95
2018-08-20T06:23:57.393Z,16.55
2018-08-20T06:25:01.080Z,16.55
2018-08-20T06:26:04.841Z,18.62
2018-08-20T06:27:08.411Z,15.32
2018-08-20T06:29:21.797Z,19.07
2018-08-20T06:30:25.431Z,15.45
2018-08-20T06:31:29.075Z,19.00
2018-08-20T06:32:32.580Z,16.25
2018-08-20T06:33:36.050Z,21.37
2018-08-20T06:34:39.974Z,15.53
2018-08-20T06:35:43.628Z,17.87
2018-08-20T06:36:47.249Z,17.92
2018-08-20T06:37:50.722Z,20.23
2018-08-20T06:38:54.178Z,23.40
2018-08-20T06:39:57.727Z,21.12
2018-08-20T06:41:01.920Z,18.62
2018-08-20T06:42:05.436Z,22.13
2018-08-20T06:43:08.956Z,25.55
2018-08-20T06:44:12.591Z,21.57
2018-08-20T06:45:17.753Z,20.10
2018-08-20T06:46:21.334Z,20.32
2018-08-20T06:47:24.891Z,19.57
2018-08-20T06:48:28.411Z,21.27
2018-08-20T06:49:31.904Z,19.32
2018-08-20T06:50:35.576Z,19.00
2018-08-20T06:51:39.580Z,23.07
2018-08-20T06:52:44.356Z,21.00
2018-08-20T06:53:47.871Z,21.65
2018-08-20T06:54:51.586Z,24.87
2018-08-20T06:55:55.236Z,22.32
2018-08-20T06:56:58.837Z,20.60
2018-08-20T06:58:02.892Z,22.67
2018-08-20T06:59:06.455Z,20.92
2018-08-20T07:00:11.371Z,19.25
2018-08-20T07:01:15.010Z,20.68
2018-08-20T07:02:18.564Z,17.75
2018-08-20T07:03:22.114Z,21.77
2018-08-20T07:04:25.660Z,20.97
2018-08-20T07:05:29.876Z,22.13
2018-08-20T07:06:33.549Z,19.57
2018-08-20T07:07:38.310Z,20.62
2018-08-20T07:08:42.409Z,19.75
2018-08-20T07:09:45.897Z,25.72
2018-08-20T07:10:49.465Z,22.00
2018-08-20T07:11:53.770Z,21.95
2018-08-20T07:13:07.220Z,18.45
2018-08-20T07:14:10.822Z,20.43
2018-08-20T07:15:15.615Z,21.65
2018-08-20T07:16:19.261Z,20.68
2018-08-20T07:17:23.779Z,22.77
2018-08-20T07:18:27.276Z,22.80
2018-08-20T07:19:30.769Z,22.48
2018-08-20T07:20:34.646Z,24.70
2018-08-20T07:21:38.096Z,18.90
2018-08-20T07:22:41.813Z,19.52
2018-08-20T07:23:45.341Z,22.70
2018-08-20T07:24:48.920Z,20.37
2018-08-20T07:25:53.372Z,22.00
2018-08-20T07:26:56.981Z,22.65
2018-08-20T07:28:00.577Z,20.23
2018-08-20T07:29:04.553Z,23.22
2018-08-20T07:30:09.982Z,23.15
2018-08-20T07:31:13.637Z,27.15
2018-08-20T07:32:17.470Z,19.67
2018-08-20T07:33:21.076Z,19.52
2018-08-20T07:34:24.885Z,22.98
2018-08-20T07:35:28.398Z,23.90
2018-08-20T07:36:31.904Z,25.72
2018-08-20T07:37:35.445Z,22.17
2018-08-20T07:38:39.242Z,22.48
2018-08-20T07:39:44.692Z,20.37
2018-08-20T07:40:49.048Z,26.68
2018-08-20T07:41:52.641Z,22.48
2018-08-20T07:42:56.316Z,24.95
2018-08-20T07:43:59.826Z,19.62
2018-08-20T07:45:03.492Z,23.02
2018-08-20T07:46:07.199Z,26.35
2018-08-20T07:47:11.359Z,19.48
2018-08-20T07:48:15.941Z,24.67
2018-08-20T07:49:20.096Z,22.48
2018-08-20T07:50:23.864Z,21.30
2018-08-20T07:51:27.625Z,20.27
2018-08-20T07:52:31.144Z,24.02
2018-08-20T07:53:34.713Z,21.55
2018-08-20T07:54:39.156Z,19.82
2018-08-20T07:55:43.042Z,21.07
2018-08-20T07:56:47.741Z,19.98
2018-08-20T07:57:51.645Z,22.02
2018-08-20T07:58:55.174Z,21.33
2018-08-20T07:59:58.665Z,23.55
2018-08-20T08:01:04.248Z,19.00
2018-08-20T08:02:10.229Z,25.40
2018-08-20T08:03:14.007Z,19.12
2018-08-20T08:04:17.480Z,22.42
2018-08-20T08:05:21.099Z,20.68
2018-08-20T08:06:25.172Z,22.80
2018-08-20T08:07:28.766Z,22.73
2018-08-20T08:08:32.659Z,23.42
2018-08-20T08:09:36.257Z,21.00
2018-08-20T08:10:40.486Z,24.37
2018-08-20T08:11:44.105Z,22.95
2018-08-20T08:12:47.730Z,20.17
2018-08-20T08:13:51.214Z,24.95
2018-08-20T08:14:54.819Z,24.05
2018-08-20T08:15:58.516Z,22.55
2018-08-20T08:17:01.985Z,21.55
2018-08-20T08:18:06.144Z,21.93
2018-08-20T08:19:10.977Z,24.25
2018-08-20T08:20:15.356Z,23.75
2018-08-20T08:21:18.927Z,24.18
2018-08-20T08:22:22.463Z,22.27
2018-08-20T08:23:26.388Z,22.20
2018-08-20T08:24:29.961Z,21.33
2018-08-20T08:25:33.604Z,25.10
2018-08-20T08:26:38.016Z,22.55
2018-08-20T08:27:41.607Z,24.07
2018-08-20T08:28:45.119Z,23.00
2018-08-20T08:29:48.659Z,20.60
2018-08-20T08:30:52.213Z,24.18
2018-08-20T08:31:55.963Z,20.92
2018-08-20T08:32:59.588Z,20.72
2018-08-20T08:34:03.665Z,24.00
2018-08-20T08:35:08.301Z,22.98
2018-08-20T08:36:11.922Z,26.37
2018-08-20T08:37:15.452Z,24.52
2018-08-20T08:38:19.094Z,24.23
2018-08-20T08:39:22.769Z,22.32
2018-08-20T08:40:26.353Z,22.10
2018-08-20T08:41:29.940Z,23.40
2018-08-20T08:42:33.900Z,24.52
2018-08-20T08:43:37.516Z,21.70
2018-08-20T08:44:41.336Z,21.10
2018-08-20T08:45:44.832Z,25.02
2018-08-20T08:46:48.413Z,20.35
2018-08-20T08:47:51.987Z,24.23
2018-08-20T08:48:55.540Z,21.45
2018-08-20T08:49:59.215Z,24.45
2018-08-20T08:51:02.810Z,27.10
2018-08-20T08:52:06.286Z,20.00
2018-08-20T08:53:09.879Z,24.65
2018-08-20T08:54:13.550Z,23.95
2018-08-20T08:55:17.127Z,22.58
2018-08-20T08:56:20.753Z,25.77
2018-08-20T08:57:25.008Z,24.02
2018-08-20T08:58:28.544Z,23.47
2018-08-20T08:59:32.149Z,22.32
2018-08-20T09:00:35.796Z,21.90
2018-08-20T09:01:39.494Z,22.10
2018-08-20T09:02:43.293Z,22.75
2018-08-20T09:03:47.256Z,21.45
2018-08-20T09:04:50.833Z,23.40
2018-08-20T09:05:54.517Z,22.22
2018-08-20T09:06:58.463Z,28.38
2018-08-20T09:08:02.127Z,21.42
2018-08-20T09:09:07.465Z,20.85
2018-08-20T09:10:11.760Z,21.65
2018-08-20T09:11:15.390Z,24.35
2018-08-20T09:12:18.948Z,21.75
2018-08-20T09:13:22.828Z,20.92
2018-08-20T09:14:26.438Z,23.85
2018-08-20T09:15:30.044Z,21.52
2018-08-20T09:16:34.209Z,20.02
2018-08-20T09:17:38.089Z,23.12
2018-08-20T09:18:41.594Z,22.40
2018-08-20T09:19:45.361Z,18.65
2018-08-20T09:20:48.872Z,19.67
2018-08-20T09:21:52.520Z,20.65
2018-08-20T09:22:56.131Z,22.58
2018-08-20T09:24:00.220Z,19.02
2018-08-20T09:25:04.133Z,17.48
2018-08-20T09:26:08.064Z,16.82
2018-08-20T09:27:12.003Z,16.70
2018-08-20T09:28:15.834Z,20.25
2018-08-20T09:29:19.463Z,19.10
2018-08-20T09:30:24.251Z,17.77
2018-08-20T09:31:27.786Z,19.62
2018-08-20T09:32:31.273Z,16.23
2018-08-20T09:33:35.424Z,18.15
2018-08-20T09:34:38.973Z,15.55
2018-08-20T09:35:43.025Z,17.55
2018-08-20T09:36:46.569Z,16.67
2018-08-20T09:37:50.457Z,20.62
2018-08-20T09:38:54.093Z,18.17
2018-08-20T09:39:57.747Z,18.10
2018-08-20T09:41:01.448Z,19.80
2018-08-20T09:42:05.900Z,19.05
2018-08-20T09:43:09.822Z,15.03
2018-08-20T09:44:13.495Z,16.17
2018-08-20T09:45:17.122Z,18.42
2018-08-20T09:46:20.816Z,17.25
2018-08-20T09:47:24.413Z,16.70
2018-08-20T09:48:28.105Z,17.92
2018-08-20T09:49:32.452Z,18.50
2018-08-20T09:50:36.006Z,19.87
2018-08-20T09:51:40.225Z,17.67
2018-08-20T09:52:44.332Z,15.25
2018-08-20T09:53:47.928Z,17.23
2018-08-20T09:54:51.465Z,17.85
2018-08-20T09:55:55.187Z,18.80
2018-08-20T09:56:59.503Z,18.50
2018-08-20T09:58:03.148Z,16.70
2018-08-20T09:59:06.727Z,18.10
2018-08-20T10:00:17.879Z,17.95
2018-08-20T10:01:21.399Z,16.42
2018-08-20T10:02:24.928Z,19.00
2018-08-20T10:03:29.127Z,17.75
2018-08-20T10:04:32.625Z,20.32
2018-08-20T10:05:36.199Z,20.75
2018-08-20T10:06:39.936Z,20.25
2018-08-20T10:07:44.151Z,17.87
2018-08-20T10:08:47.646Z,19.12
2018-08-20T10:09:51.322Z,18.10
2018-08-20T10:10:54.922Z,14.87
2018-08-20T10:11:58.606Z,18.62
2018-08-20T10:13:02.301Z,17.85
2018-08-20T10:14:06.102Z,19.85
2018-08-20T10:15:10.283Z,18.67
2018-08-20T10:16:13.942Z,18.23
2018-08-20T10:17:17.561Z,16.25
2018-08-20T10:18:21.743Z,18.07
2018-08-20T10:19:25.465Z,18.40
2018-08-20T10:20:29.069Z,18.17
2018-08-20T10:21:32.629Z,16.30
2018-08-20T10:22:36.446Z,15.23
2018-08-20T10:23:39.942Z,20.00
2018-08-20T10:24:43.438Z,19.82
2018-08-20T10:25:47.039Z,18.27
2018-08-20T10:26:50.954Z,17.20
2018-08-20T10:27:54.476Z,15.10
2018-08-20T10:28:58.050Z,16.75
2018-08-20T10:30:01.846Z,15.70
2018-08-20T10:31:06.489Z,18.80
2018-08-20T10:32:10.127Z,15.98
2018-08-20T10:33:14.288Z,20.70
2018-08-20T10:34:17.794Z,14.47
2018-08-20T10:35:21.859Z,12.00
2018-08-20T10:36:25.394Z,14.38
2018-08-20T10:37:29.193Z,16.00
2018-08-20T10:38:32.683Z,17.25
2018-08-20T10:39:37.858Z,15.83
2018-08-20T10:40:41.380Z,14.00
2018-08-20T10:41:46.059Z,17.65
2018-08-20T10:42:49.740Z,16.48
2018-08-20T10:43:53.912Z,17.42
2018-08-20T10:45:02.596Z,15.93
2018-08-20T10:46:11.672Z,17.40
2018-08-20T10:47:15.217Z,17.60
2018-08-20T10:48:18.770Z,16.77
2018-08-20T10:49:22.772Z,17.02
2018-08-20T10:50:26.829Z,16.17
2018-08-20T10:51:31.557Z,15.95
2018-08-20T10:52:35.258Z,17.17
2018-08-20T10:53:38.752Z,17.50
2018-08-20T10:54:42.770Z,15.93
2018-08-20T10:55:46.430Z,13.88
2018-08-20T10:56:50.151Z,17.73
2018-08-20T10:57:53.756Z,15.40
2018-08-20T10:58:57.623Z,20.65
2018-08-20T11:00:01.168Z,18.52
2018-08-20T11:01:04.805Z,21.52
2018-08-20T11:02:09.964Z,14.25
2018-08-20T11:03:13.841Z,17.52
2018-08-20T11:04:17.852Z,15.38
2018-08-20T11:05:21.618Z,17.73
2018-08-20T11:06:26.374Z,17.73
2018-08-20T11:07:29.889Z,17.87
2018-08-20T11:08:33.356Z,16.80
2018-08-20T11:09:37.018Z,14.65
2018-08-20T11:10:40.853Z,15.88
2018-08-20T11:11:44.576Z,17.85
2018-08-20T11:12:48.145Z,16.95
2018-08-20T11:13:51.755Z,16.07
2018-08-20T11:14:55.218Z,15.88
2018-08-20T11:15:58.801Z,17.25
2018-08-20T11:17:02.545Z,18.65
2018-08-20T11:18:06.287Z,18.37
2018-08-20T11:19:10.060Z,20.52
2018-08-20T11:20:15.084Z,19.92
2018-08-20T11:21:18.758Z,18.80
2018-08-20T11:22:22.388Z,18.77
2018-08-20T11:23:28.336Z,17.85
2018-08-20T11:24:33.197Z,18.60
2018-08-20T11:25:36.887Z,19.35
2018-08-20T11:26:40.994Z,34.05
2018-08-20T11:27:45.831Z,21.68
2018-08-20T11:28:49.563Z,19.02
2018-08-20T11:29:53.251Z,23.45
2018-08-20T11:30:56.907Z,16.32
2018-08-20T11:32:00.504Z,19.30
2018-08-20T11:33:04.198Z,16.70
2018-08-20T11:34:08.028Z,17.25
2018-08-20T11:35:12.438Z,16.10
2018-08-20T11:36:16.129Z,18.20
2018-08-20T11:37:19.729Z,16.17
2018-08-20T11:38:23.285Z,17.40
2018-08-20T11:39:27.034Z,14.60
2018-08-20T11:40:30.660Z,13.70
2018-08-20T11:41:34.813Z,12.70
2018-08-20T11:42:38.382Z,12.78
2018-08-20T11:43:42.006Z,11.55
2018-08-20T11:44:45.534Z,10.20
2018-08-20T11:45:49.409Z,9.55
2018-08-20T11:46:52.974Z,11.63
2018-08-20T11:47:56.569Z,10.43
2018-08-20T11:49:00.413Z,10.23
2018-08-20T11:50:04.031Z,10.55
2018-08-20T11:51:08.110Z,13.65
2018-08-20T11:52:11.817Z,13.98
2018-08-20T11:53:16.299Z,9.10
2018-08-20T11:54:20.374Z,10.10
2018-08-20T11:55:23.884Z,9.75
2018-08-20T11:56:28.499Z,7.60
2018-08-20T11:57:32.071Z,7.65
2018-08-20T11:58:35.639Z,9.48
2018-08-20T11:59:39.643Z,6.28
2018-08-20T12:00:43.906Z,6.10
2018-08-20T12:01:47.645Z,5.95
2018-08-20T12:02:51.388Z,7.12
2018-08-20T12:03:56.008Z,5.87
2018-08-20T12:04:59.680Z,6.20
2018-08-20T12:06:03.857Z,5.97
2018-08-20T12:07:07.705Z,6.33
2018-08-20T12:08:11.471Z,7.10
2018-08-20T12:09:15.003Z,4.37
2018-08-20T12:10:18.744Z,6.12
2018-08-20T12:11:22.388Z,5.40
2018-08-20T12:12:26.407Z,6.30
2018-08-20T12:13:30.200Z,4.87
2018-08-20T12:14:35.029Z,4.62
2018-08-20T12:15:38.560Z,4.65
2018-08-20T12:16:42.875Z,3.55
2018-08-20T12:17:46.992Z,3.85
2018-08-20T12:18:51.221Z,4.65
2018-08-20T12:19:54.984Z,4.45
2018-08-20T12:20:58.560Z,3.95
2018-08-20T12:22:02.149Z,3.87
2018-08-20T12:23:06.223Z,3.75
2018-08-20T12:24:10.386Z,3.72
2018-08-20T12:25:15.096Z,4.97
2018-08-20T12:26:18.784Z,5.15
2018-08-20T12:27:22.366Z,3.70
2018-08-20T12:28:25.960Z,5.72
2018-08-20T12:29:29.510Z,4.12
2018-08-20T12:30:33.671Z,3.22
2018-08-20T12:31:38.876Z,5.85
2018-08-20T12:32:42.911Z,5.20
2018-08-20T12:33:46.433Z,4.00
2018-08-20T12:34:50.265Z,4.42
2018-08-20T12:35:54.033Z,6.87
2018-08-20T12:36:59.110Z,4.03
2018-08-20T12:38:02.793Z,4.35
2018-08-20T12:39:07.322Z,4.53
2018-08-20T12:40:10.897Z,6.50
2018-08-20T12:41:15.139Z,8.05
2018-08-20T12:42:19.643Z,5.37
2018-08-20T12:43:23.743Z,6.60
2018-08-20T12:44:28.271Z,4.72
2018-08-20T12:45:33.796Z,5.37
2018-08-20T12:46:38.424Z,6.87
2018-08-20T12:47:43.923Z,5.75
2018-08-20T12:48:51.215Z,5.87
2018-08-20T12:49:55.837Z,5.20
2018-08-20T12:51:00.126Z,6.10
2018-08-20T12:52:04.524Z,3.80
2018-08-20T12:53:09.354Z,6.62
2018-08-20T12:54:13.511Z,6.90
2018-08-20T12:55:17.976Z,6.25
2018-08-20T12:56:23.495Z,5.78
2018-08-20T12:57:29.302Z,5.78
2018-08-20T12:58:33.634Z,4.83
2018-08-20T12:59:38.699Z,5.08
2018-08-20T13:00:42.582Z,7.10
2018-08-20T13:01:47.629Z,5.75
2018-08-20T13:02:51.520Z,5.03
2018-08-20T13:03:55.455Z,4.78
2018-08-20T13:04:59.577Z,5.58
2018-08-20T13:06:05.086Z,5.97
2018-08-20T13:07:09.051Z,5.58
2018-08-20T13:08:13.925Z,7.50
2018-08-20T13:09:18.528Z,5.45
2018-08-20T13:10:22.536Z,7.37
2018-08-20T13:11:26.943Z,6.42
2018-08-20T13:12:31.993Z,6.12
2018-08-20T13:13:36.001Z,4.80
2018-08-20T13:14:41.664Z,4.50
2018-08-20T13:15:45.830Z,5.58
2018-08-20T13:16:50.189Z,5.05
2018-08-20T13:17:54.685Z,3.52
2018-08-20T13:19:00.505Z,2.85
2018-08-20T13:20:05.650Z,3.50
2018-08-20T13:21:09.480Z,3.40
2018-08-20T13:22:13.311Z,5.20
2018-08-20T13:23:17.039Z,4.35
2018-08-20T13:24:20.536Z,3.33
2018-08-20T13:25:25.595Z,3.95
2018-08-20T13:26:29.523Z,9.08
2018-08-20T13:27:34.102Z,3.60
2018-08-20T13:28:38.077Z,6.70
2018-08-20T13:29:42.029Z,7.60
2018-08-20T13:30:45.746Z,4.83
2018-08-20T13:31:49.315Z,4.47
2018-08-20T13:32:54.082Z,2.80
2018-08-20T13:33:57.691Z,2.50
2018-08-20T13:35:02.587Z,6.30
2018-08-20T13:36:06.178Z,2.55
2018-08-20T13:37:09.764Z,3.85
2018-08-20T13:38:13.749Z,3.02
2018-08-20T13:39:17.408Z,2.58
2018-08-20T13:40:20.974Z,3.10
2018-08-20T13:41:26.397Z,2.70
2018-08-20T13:42:30.596Z,2.90
2018-08-20T13:43:34.179Z,3.67
2018-08-20T13:44:37.822Z,3.20
2018-08-20T13:45:41.940Z,2.05
2018-08-20T13:46:46.207Z,2.20
2018-08-20T13:47:49.813Z,2.65
2018-08-20T13:48:53.859Z,2.62